createdAt,value
2022-11-18T00:01:22.007Z,99571.34
2022-11-18T00:03:51.030Z,99579.66
2022-11-18T00:06:24.544Z,99589.84
2022-11-18T00:08:53.431Z,99597.38
2022-11-18T00:11:42.498Z,99581.91
2022-11-18T00:14:25.027Z,99575.56
2022-11-18T00:16:58.469Z,99583.31
2022-11-18T00:19:31.684Z,99578.00
2022-11-18T00:22:00.245Z,99584.94
2022-11-18T00:24:28.335Z,99556.38
2022-11-18T00:26:56.794Z,99568.03
2022-11-18T00:29:28.377Z,99569.44
2022-11-18T00:31:56.387Z,99556.97
2022-11-18T00:34:24.149Z,99558.28
2022-11-18T00:36:51.637Z,99552.09
2022-11-18T00:39:20.267Z,99561.34
2022-11-18T00:42:07.013Z,99546.72
2022-11-18T00:44:34.795Z,99546.13
2022-11-18T00:47:02.402Z,99545.28
2022-11-18T00:49:29.767Z,99558.88
2022-11-18T00:51:57.480Z,99543.41
2022-11-18T00:54:24.669Z,99543.59
2022-11-18T00:56:52.100Z,99543.41
2022-11-18T00:59:19.631Z,99544.72
2022-11-18T01:01:48.849Z,99541.41
2022-11-18T01:04:16.406Z,99531.78
2022-11-18T01:06:44.118Z,99536.97
2022-11-18T01:09:11.249Z,99537.72
2022-11-18T01:11:57.543Z,99537.34
2022-11-18T01:14:25.935Z,99532.06
2022-11-18T01:16:57.031Z,99520.38
2022-11-18T01:19:25.279Z,99504.94
2022-11-18T01:21:53.163Z,99517.63
2022-11-18T01:24:20.473Z,99527.88
2022-11-18T01:26:48.474Z,99524.25
2022-11-18T01:29:16.049Z,99534.63
2022-11-18T01:32:01.821Z,99512.91
2022-11-18T01:34:30.956Z,99526.81
2022-11-18T01:36:58.749Z,99517.47
2022-11-18T01:39:25.963Z,99521.16
2022-11-18T01:41:53.508Z,99528.53
2022-11-18T01:45:14.534Z,99525.47
2022-11-18T01:47:50.986Z,99506.84
2022-11-18T01:50:20.289Z,99518.97
2022-11-18T01:52:51.850Z,99516.13
2022-11-18T01:55:26.160Z,99530.00
2022-11-18T01:58:01.642Z,99516.22
2022-11-18T02:00:28.947Z,99510.34
2022-11-18T02:02:57.279Z,99499.25
2022-11-18T02:05:26.217Z,99504.88
2022-11-18T02:07:53.671Z,99508.13
2022-11-18T02:10:25.129Z,99512.84
2022-11-18T02:12:53.724Z,99509.63
2022-11-18T02:15:29.569Z,99511.25
2022-11-18T02:18:13.178Z,99505.00
2022-11-18T02:20:46.592Z,99497.38
2022-11-18T02:23:50.886Z,99497.66
2022-11-18T02:26:45.316Z,99511.31
2022-11-18T02:29:29.351Z,99521.28
2022-11-18T02:32:04.855Z,99510.53
2022-11-18T02:34:48.290Z,99517.72
2022-11-18T02:37:31.690Z,99505.34
2022-11-18T02:40:08.462Z,99510.06
2022-11-18T02:42:37.973Z,99509.03
2022-11-18T02:45:17.201Z,99524.19
2022-11-18T02:47:47.793Z,99515.53
2022-11-18T02:50:20.047Z,99508.59
2022-11-18T02:52:49.432Z,99520.84
2022-11-18T02:55:18.701Z,99516.88
2022-11-18T02:57:47.923Z,99528.66
2022-11-18T03:00:16.135Z,99529.88
2022-11-18T03:02:46.133Z,99516.88
2022-11-18T03:05:25.577Z,99529.97
2022-11-18T03:07:59.944Z,99534.31
2022-11-18T03:10:35.968Z,99522.72
2022-11-18T03:13:16.760Z,99522.81
2022-11-18T03:15:55.438Z,99527.84
2022-11-18T03:18:51.128Z,99537.66
2022-11-18T03:21:31.168Z,99537.63
2022-11-18T03:24:09.903Z,99546.63
2022-11-18T03:26:43.730Z,99540.41
2022-11-18T03:29:21.436Z,99529.00
2022-11-18T03:31:53.078Z,99532.50
2022-11-18T03:34:27.539Z,99540.25
2022-11-18T03:37:00.800Z,99542.41
2022-11-18T03:39:34.495Z,99551.41
2022-11-18T03:42:29.649Z,99540.13
2022-11-18T03:45:03.792Z,99540.31
2022-11-18T03:47:37.787Z,99544.63
2022-11-18T03:50:12.675Z,99548.19
2022-11-18T03:52:41.626Z,99550.59
2022-11-18T03:55:15.927Z,99537.50
2022-11-18T03:57:48.838Z,99540.66
2022-11-18T04:00:17.918Z,99545.94
2022-11-18T04:02:47.901Z,99545.19
2022-11-18T04:05:18.952Z,99553.84
2022-11-18T04:08:05.026Z,99548.78
2022-11-18T04:10:58.859Z,99551.69
2022-11-18T04:13:33.182Z,99544.19
2022-11-18T04:16:01.000Z,99547.81
2022-11-18T04:18:28.575Z,99548.22
2022-11-18T04:20:55.717Z,99556.19
2022-11-18T04:23:23.142Z,99551.47
2022-11-18T04:25:50.274Z,99551.09
2022-11-18T04:28:17.765Z,99544.03
2022-11-18T04:30:44.885Z,99537.19
2022-11-18T04:33:12.403Z,99547.13
2022-11-18T04:35:39.561Z,99553.41
2022-11-18T04:38:06.987Z,99537.06
2022-11-18T04:40:34.091Z,99554.22
2022-11-18T04:43:01.546Z,99541.59
2022-11-18T04:45:28.741Z,99549.81
2022-11-18T04:48:01.932Z,99533.34
2022-11-18T04:50:30.528Z,99544.50
2022-11-18T04:52:57.954Z,99531.44
2022-11-18T04:55:27.301Z,99536.53
2022-11-18T04:57:54.836Z,99527.13
2022-11-18T05:00:22.554Z,99547.75
2022-11-18T05:02:49.965Z,99536.75
2022-11-18T05:05:17.149Z,99539.97
2022-11-18T05:07:44.673Z,99538.84
2022-11-18T05:10:11.926Z,99541.06
2022-11-18T05:12:52.417Z,99546.81
2022-11-18T05:15:22.533Z,99533.38
2022-11-18T05:17:50.532Z,99543.66
2022-11-18T05:20:17.702Z,99539.47
2022-11-18T05:22:45.178Z,99550.84
2022-11-18T05:25:12.414Z,99537.81
2022-11-18T05:27:40.023Z,99553.22
2022-11-18T05:30:07.659Z,99540.00
2022-11-18T05:32:35.225Z,99544.75
2022-11-18T05:35:02.384Z,99547.19
2022-11-18T05:37:32.663Z,99549.25
2022-11-18T05:39:59.760Z,99538.97
2022-11-18T05:42:45.803Z,99553.72
2022-11-18T05:45:13.002Z,99554.19
2022-11-18T05:47:59.885Z,99554.91
2022-11-18T05:50:27.027Z,99552.03
2022-11-18T05:52:54.486Z,99561.44
2022-11-18T05:55:26.315Z,99556.66
2022-11-18T05:57:53.741Z,99561.88
2022-11-18T06:00:21.295Z,99566.72
2022-11-18T06:02:50.688Z,99564.44
2022-11-18T06:05:20.903Z,99567.84
2022-11-18T06:07:48.490Z,99572.88
2022-11-18T06:10:25.546Z,99577.63
2022-11-18T06:12:57.744Z,99570.50
2022-11-18T06:15:28.415Z,99587.06
2022-11-18T06:18:02.242Z,99598.56
2022-11-18T06:20:29.545Z,99593.97
2022-11-18T06:22:58.517Z,99592.75
2022-11-18T06:25:25.834Z,99590.97
2022-11-18T06:27:58.568Z,99599.94
2022-11-18T06:30:25.716Z,99599.34
2022-11-18T06:32:53.286Z,99595.69
2022-11-18T06:35:20.482Z,99607.50
2022-11-18T06:37:47.927Z,99612.09
2022-11-18T06:40:15.115Z,99601.78
2022-11-18T06:43:01.429Z,99619.44
2022-11-18T06:45:28.747Z,99614.34
2022-11-18T06:48:00.964Z,99617.09
2022-11-18T06:50:29.205Z,99624.94
2022-11-18T06:52:59.937Z,99612.94
2022-11-18T06:55:27.071Z,99619.63
2022-11-18T06:57:56.804Z,99613.59
2022-11-18T07:00:23.997Z,99643.84
2022-11-18T07:02:51.444Z,99637.59
2022-11-18T07:05:18.685Z,99635.03
2022-11-18T07:07:46.343Z,99627.59
2022-11-18T07:10:13.580Z,99632.63
2022-11-18T07:12:40.994Z,99624.78
2022-11-18T07:15:08.654Z,99635.16
2022-11-18T07:17:36.125Z,99656.03
2022-11-18T07:20:03.816Z,99638.25
2022-11-18T07:22:31.216Z,99641.66
2022-11-18T07:24:58.692Z,99638.84
2022-11-18T07:27:26.119Z,99645.91
2022-11-18T07:29:53.272Z,99653.19
2022-11-18T07:32:20.731Z,99641.97
2022-11-18T07:34:47.992Z,99640.47
2022-11-18T07:37:15.402Z,99634.19
2022-11-18T07:39:42.569Z,99629.66
2022-11-18T07:42:10.244Z,99643.09
2022-11-18T07:44:37.366Z,99643.47
2022-11-18T07:47:04.920Z,99636.66
2022-11-18T07:49:32.053Z,99647.69
2022-11-18T07:51:59.437Z,99649.22
2022-11-18T07:54:26.591Z,99645.91
2022-11-18T07:56:54.037Z,99657.06
2022-11-18T07:59:21.400Z,99645.16
2022-11-18T08:01:49.075Z,99661.78
2022-11-18T08:04:18.073Z,99668.09
2022-11-18T08:06:45.772Z,99641.97
2022-11-18T08:09:13.011Z,99646.09
2022-11-18T08:11:41.065Z,99643.09
2022-11-18T08:14:08.336Z,99651.00
2022-11-18T08:16:35.765Z,99652.78
2022-11-18T08:19:03.199Z,99650.63
2022-11-18T08:21:30.721Z,99653.09
2022-11-18T08:23:58.592Z,99674.44
2022-11-18T08:26:27.244Z,99664.41
2022-11-18T08:28:54.639Z,99653.06
2022-11-18T08:31:27.568Z,99665.78
2022-11-18T08:33:56.198Z,99661.44
2022-11-18T08:36:26.445Z,99651.88
2022-11-18T08:38:55.798Z,99664.00
2022-11-18T08:41:39.826Z,99658.88
2022-11-18T08:44:11.169Z,99647.38
2022-11-18T08:46:38.728Z,99643.25
2022-11-18T08:49:06.035Z,99656.44
2022-11-18T08:51:33.656Z,99669.09
2022-11-18T08:54:00.835Z,99653.09
2022-11-18T08:56:28.296Z,99667.63
2022-11-18T08:58:56.137Z,99662.25
2022-11-18T09:01:23.747Z,99651.13
2022-11-18T09:03:52.028Z,99658.25
2022-11-18T09:06:22.767Z,99667.34
2022-11-18T09:08:49.881Z,99658.44
2022-11-18T09:11:19.883Z,99655.13
2022-11-18T09:16:35.762Z,99672.91
2022-11-18T09:19:18.532Z,99653.72
2022-11-18T09:21:50.738Z,99640.69
2022-11-18T09:24:18.248Z,99658.66
2022-11-18T09:26:45.908Z,99669.13
2022-11-18T09:29:13.071Z,99643.53
2022-11-18T09:31:41.738Z,99668.84
2022-11-18T09:34:10.520Z,99652.31
2022-11-18T09:36:38.117Z,99636.75
2022-11-18T09:39:05.387Z,99652.78
2022-11-18T09:41:41.814Z,99645.09
2022-11-18T09:44:21.088Z,99652.75
2022-11-18T09:46:48.458Z,99647.94
2022-11-18T09:49:24.782Z,99657.34
2022-11-18T09:51:52.828Z,99658.56
2022-11-18T09:54:25.902Z,99651.03
2022-11-18T09:56:55.288Z,99643.31
2022-11-18T09:59:30.649Z,99647.75
2022-11-18T10:02:25.597Z,99647.44
2022-11-18T10:04:55.485Z,99645.53
2022-11-18T10:07:32.540Z,99649.69
2022-11-18T10:10:03.646Z,99637.97
2022-11-18T10:12:49.660Z,99640.31
2022-11-18T10:15:42.990Z,99646.78
2022-11-18T10:18:58.999Z,99644.78
2022-11-18T10:21:53.184Z,99665.88
2022-11-18T10:24:26.848Z,99665.72
2022-11-18T10:26:59.726Z,99665.16
2022-11-18T10:29:27.647Z,99685.19
2022-11-18T10:32:04.839Z,99661.31
2022-11-18T10:34:34.897Z,99667.25
2022-11-18T10:37:10.612Z,99673.84
2022-11-18T10:39:53.789Z,99665.16
2022-11-18T10:42:41.245Z,99671.03
2022-11-18T10:45:28.052Z,99667.25
2022-11-18T10:48:21.647Z,99665.91
2022-11-18T10:50:55.671Z,99682.38
2022-11-18T10:53:37.376Z,99678.47
2022-11-18T10:56:07.720Z,99657.06
2022-11-18T10:58:37.756Z,99661.44
2022-11-18T11:01:08.950Z,99679.81
2022-11-18T11:03:39.005Z,99670.75
2022-11-18T11:06:27.817Z,99683.78
2022-11-18T11:08:56.600Z,99679.06
2022-11-18T11:11:30.493Z,99685.00
2022-11-18T11:14:11.997Z,99692.69
2022-11-18T11:16:47.495Z,99673.03
2022-11-18T11:19:17.363Z,99686.16
2022-11-18T11:21:44.858Z,99686.44
2022-11-18T11:24:12.845Z,99677.56
2022-11-18T11:29:54.080Z,99682.75
2022-11-18T11:32:58.695Z,99677.84
2022-11-18T11:35:36.331Z,99688.59
2022-11-18T11:38:18.551Z,99685.28
2022-11-18T11:41:02.423Z,99689.38
2022-11-18T11:43:54.903Z,99691.06
2022-11-18T11:46:34.079Z,99698.16
2022-11-18T11:49:29.569Z,99694.03
2022-11-18T11:52:29.832Z,99702.63
2022-11-18T11:55:15.264Z,99699.63
2022-11-18T11:57:53.363Z,99694.53
2022-11-18T12:00:21.239Z,99693.31
2022-11-18T12:03:01.040Z,99697.56
2022-11-18T12:05:46.641Z,99699.69
2022-11-18T12:08:20.599Z,99694.03
2022-11-18T12:10:47.978Z,99698.94
2022-11-18T12:13:31.087Z,99704.78
2022-11-18T12:16:22.877Z,99702.38
2022-11-18T12:18:59.157Z,99700.47
2022-11-18T12:21:45.402Z,99697.47
2022-11-18T12:24:18.363Z,99704.75
2022-11-18T12:26:47.682Z,99702.16
2022-11-18T12:29:21.342Z,99703.03
2022-11-18T12:32:14.480Z,99706.34
2022-11-18T12:34:43.885Z,99704.84
2022-11-18T12:37:26.342Z,99703.78
2022-11-18T12:39:56.332Z,99698.81
2022-11-18T12:42:59.301Z,99701.44
2022-11-18T12:45:48.891Z,99707.47
2022-11-18T12:48:28.491Z,99710.78
2022-11-18T12:51:01.263Z,99708.22
2022-11-18T12:53:34.748Z,99725.97
2022-11-18T12:56:22.192Z,99728.38
2022-11-18T12:58:56.683Z,99727.56
2022-11-18T13:01:27.931Z,99728.41
2022-11-18T13:04:14.594Z,99728.47
2022-11-18T13:06:42.723Z,99728.38
2022-11-18T13:09:17.940Z,99739.28
2022-11-18T13:11:58.774Z,99729.09
2022-11-18T13:15:02.239Z,99726.09
2022-11-18T13:17:52.123Z,99711.00
2022-11-18T13:20:33.295Z,99712.41
2022-11-18T13:23:20.626Z,99709.94
2022-11-18T13:25:50.010Z,99729.84
2022-11-18T13:28:45.206Z,99727.66
2022-11-18T13:31:25.129Z,99733.78
2022-11-18T13:33:52.692Z,99725.16
2022-11-18T13:36:23.581Z,99718.06
2022-11-18T13:38:59.351Z,99714.06
2022-11-18T13:41:34.849Z,99725.25
2022-11-18T13:44:18.715Z,99742.97
2022-11-18T13:46:51.489Z,99725.81
2022-11-18T13:49:32.464Z,99736.56
2022-11-18T13:52:01.020Z,99727.81
2022-11-18T13:54:29.267Z,99732.94
2022-11-18T13:56:56.832Z,99730.22
2022-11-18T13:59:24.997Z,99738.53
2022-11-18T14:01:56.489Z,99739.50
2022-11-18T14:04:27.598Z,99738.75
2022-11-18T14:07:29.628Z,99742.09
2022-11-18T14:10:02.796Z,99742.69
2022-11-18T14:12:32.877Z,99738.69
2022-11-18T14:15:42.094Z,99749.94
2022-11-18T14:18:36.868Z,99749.69
2022-11-18T14:21:05.948Z,99745.53
2022-11-18T14:23:36.362Z,99749.25
2022-11-18T14:26:06.238Z,99759.56
2022-11-18T14:28:37.178Z,99765.53
2022-11-18T14:31:13.548Z,99756.84
2022-11-18T14:33:41.084Z,99748.31
2022-11-18T14:36:16.142Z,99761.81
2022-11-18T14:41:49.268Z,99754.50
2022-11-18T14:44:18.793Z,99763.31
2022-11-18T14:47:08.158Z,99759.25
2022-11-18T14:49:36.657Z,99749.63
2022-11-18T14:52:04.733Z,99762.50
2022-11-18T14:54:32.346Z,99774.19
2022-11-18T14:57:05.239Z,99768.72
2022-11-18T14:59:33.017Z,99774.19
2022-11-18T15:02:00.634Z,99771.31
2022-11-18T15:04:28.235Z,99787.09
2022-11-18T15:06:55.594Z,99782.13
2022-11-18T15:09:23.184Z,99775.94
2022-11-18T15:11:50.527Z,99773.19
2022-11-18T15:14:18.214Z,99771.72
2022-11-18T15:16:45.690Z,99784.94
2022-11-18T15:19:16.873Z,99782.03
2022-11-18T15:21:45.463Z,99781.16
2022-11-18T15:24:13.508Z,99787.94
2022-11-18T15:26:43.728Z,99809.53
2022-11-18T15:29:22.922Z,99804.28
2022-11-18T15:31:50.708Z,99803.44
2022-11-18T15:34:20.691Z,99812.97
2022-11-18T15:36:48.484Z,99816.75
2022-11-18T15:39:16.036Z,99800.22
2022-11-18T15:41:43.272Z,99804.47
2022-11-18T15:44:11.953Z,99806.94
2022-11-18T15:46:39.703Z,99806.53
2022-11-18T15:49:09.736Z,99804.38
2022-11-18T15:51:37.339Z,99807.69
2022-11-18T15:54:04.810Z,99807.56
2022-11-18T15:56:33.180Z,99799.00
2022-11-18T15:59:02.025Z,99804.56
2022-11-18T16:01:32.349Z,99801.94
2022-11-18T16:04:00.506Z,99801.25
2022-11-18T16:06:28.203Z,99821.31
2022-11-18T16:09:00.003Z,99813.59
2022-11-18T16:11:46.908Z,99809.41
2022-11-18T16:14:17.723Z,99824.00
2022-11-18T16:16:46.989Z,99818.91
2022-11-18T16:19:17.257Z,99823.34
2022-11-18T16:21:47.205Z,99826.53
2022-11-18T16:24:18.157Z,99802.84
2022-11-18T16:26:45.773Z,99814.03
2022-11-18T16:29:17.053Z,99812.59
2022-11-18T16:31:50.689Z,99818.81
2022-11-18T16:34:26.989Z,99827.78
2022-11-18T16:36:56.572Z,99818.50
2022-11-18T16:39:26.296Z,99826.38
2022-11-18T16:42:06.922Z,99834.53
2022-11-18T16:44:36.827Z,99834.84
2022-11-18T16:47:13.724Z,99832.81
2022-11-18T16:49:42.948Z,99833.59
2022-11-18T16:52:10.268Z,99836.81
2022-11-18T16:54:44.175Z,99837.63
2022-11-18T16:57:12.267Z,99835.09
2022-11-18T16:59:39.801Z,99828.97
2022-11-18T17:02:07.290Z,99832.25
2022-11-18T17:04:38.754Z,99831.41
2022-11-18T17:07:06.534Z,99838.13
2022-11-18T17:09:34.086Z,99839.38
2022-11-18T17:12:03.291Z,99845.56
2022-11-18T17:14:31.427Z,99854.66
2022-11-18T17:17:01.343Z,99867.16
2022-11-18T17:19:28.842Z,99859.91
2022-11-18T17:21:56.046Z,99870.16
2022-11-18T17:24:24.139Z,99870.22
2022-11-18T17:26:52.344Z,99871.06
2022-11-18T17:29:20.560Z,99874.13
2022-11-18T17:31:48.255Z,99861.22
2022-11-18T17:34:16.654Z,99866.28
2022-11-18T17:36:44.371Z,99858.72
2022-11-18T17:39:13.332Z,99862.06
2022-11-18T17:41:59.598Z,99862.44
2022-11-18T17:44:27.872Z,99869.91
2022-11-18T17:46:55.157Z,99864.97
2022-11-18T17:49:22.837Z,99864.44
2022-11-18T17:51:51.392Z,99853.16
2022-11-18T17:54:20.456Z,99863.88
2022-11-18T17:56:48.433Z,99872.91
2022-11-18T17:59:17.497Z,99860.16
2022-11-18T18:01:46.078Z,99848.91
2022-11-18T18:04:22.643Z,99859.53
2022-11-18T18:06:52.851Z,99865.41
2022-11-18T18:09:26.941Z,99851.75
2022-11-18T18:11:57.862Z,99854.47
2022-11-18T18:14:25.346Z,99844.00
2022-11-18T18:16:52.517Z,99850.81
2022-11-18T18:19:22.450Z,99855.59
2022-11-18T18:21:49.739Z,99868.91
2022-11-18T18:24:19.868Z,99871.16
2022-11-18T18:26:47.337Z,99868.34
2022-11-18T18:29:15.069Z,99868.72
2022-11-18T18:31:42.308Z,99868.16
2022-11-18T18:34:09.767Z,99859.22
2022-11-18T18:36:37.404Z,99855.59
2022-11-18T18:39:04.856Z,99856.41
2022-11-18T18:41:32.692Z,99857.50
2022-11-18T18:44:00.932Z,99864.97
2022-11-18T18:46:36.690Z,99869.63
2022-11-18T18:49:10.432Z,99883.09
2022-11-18T18:51:45.471Z,99874.59
2022-11-18T18:54:15.544Z,99867.88
2022-11-18T18:56:43.463Z,99871.16
2022-11-18T18:59:11.100Z,99879.81
2022-11-18T19:01:39.333Z,99858.44
2022-11-18T19:04:11.383Z,99874.72
2022-11-18T19:09:27.905Z,99870.94
2022-11-18T19:12:14.025Z,99889.28
2022-11-18T19:14:41.627Z,99882.19
2022-11-18T19:17:11.703Z,99873.56
2022-11-18T19:20:00.961Z,99873.88
2022-11-18T19:22:33.070Z,99869.84
2022-11-18T19:25:01.681Z,99882.56
2022-11-18T19:27:29.616Z,99892.03
2022-11-18T19:29:57.384Z,99885.28
2022-11-18T19:32:24.587Z,99873.50
2022-11-18T19:34:52.127Z,99896.78
2022-11-18T19:37:19.316Z,99893.81
2022-11-18T19:39:46.757Z,99907.47
2022-11-18T19:42:13.942Z,99897.38
2022-11-18T19:44:41.367Z,99916.81
2022-11-18T19:47:08.621Z,99905.75
2022-11-18T19:49:36.093Z,99902.34
2022-11-18T19:52:03.340Z,99900.13
2022-11-18T19:54:30.873Z,99910.19
2022-11-18T19:56:58.103Z,99905.13
2022-11-18T19:59:25.565Z,99899.69
2022-11-18T20:01:53.169Z,99902.00
2022-11-18T20:04:20.683Z,99908.03
2022-11-18T20:06:48.030Z,99902.41
2022-11-18T20:09:15.953Z,99913.34
2022-11-18T20:11:43.791Z,99911.34
2022-11-18T20:14:12.539Z,99914.91
2022-11-18T20:16:40.722Z,99911.19
2022-11-18T20:19:13.397Z,99905.38
2022-11-18T20:21:43.397Z,99914.22
2022-11-18T20:24:16.053Z,99904.50
2022-11-18T20:26:44.308Z,99910.41
2022-11-18T20:29:12.224Z,99902.63
2022-11-18T20:31:39.530Z,99901.72
2022-11-18T20:34:07.072Z,99902.06
2022-11-18T20:36:36.037Z,99899.06
2022-11-18T20:39:07.499Z,99893.19
2022-11-18T20:41:36.463Z,99907.06
2022-11-18T20:44:04.583Z,99914.22
2022-11-18T20:46:33.358Z,99902.34
2022-11-18T20:49:01.696Z,99903.75
2022-11-18T20:51:29.539Z,99909.09
2022-11-18T20:53:58.563Z,99887.28
2022-11-18T20:56:27.494Z,99904.06
2022-11-18T20:58:57.766Z,99910.41
2022-11-18T21:01:27.550Z,99897.41
2022-11-18T21:03:57.678Z,99906.00
2022-11-18T21:06:28.224Z,99898.00
2022-11-18T21:09:00.487Z,99900.78
2022-11-18T21:11:27.563Z,99908.69
2022-11-18T21:14:17.223Z,99897.31
2022-11-18T21:16:49.060Z,99889.16
2022-11-18T21:19:17.117Z,99884.97
2022-11-18T21:21:44.515Z,99889.72
2022-11-18T21:24:20.439Z,99881.72
2022-11-18T21:26:48.835Z,99896.31
2022-11-18T21:29:18.277Z,99879.28
2022-11-18T21:31:47.092Z,99887.56
2022-11-18T21:34:16.538Z,99876.97
2022-11-18T21:36:46.899Z,99884.56
2022-11-18T21:39:17.126Z,99868.06
2022-11-18T21:41:44.872Z,99876.44
2022-11-18T21:44:13.875Z,99868.06
2022-11-18T21:46:42.364Z,99871.03
2022-11-18T21:49:10.343Z,99867.13
2022-11-18T21:51:37.661Z,99866.38
2022-11-18T21:54:05.433Z,99860.91
2022-11-18T21:56:33.028Z,99861.31
2022-11-18T21:59:01.976Z,99875.19
2022-11-18T22:01:32.591Z,99872.56
2022-11-18T22:04:02.790Z,99857.88
2022-11-18T22:06:32.738Z,99862.16
2022-11-18T22:09:01.340Z,99876.84
2022-11-18T22:11:28.819Z,99878.66
2022-11-18T22:13:56.685Z,99874.69
2022-11-18T22:16:25.388Z,99877.78
2022-11-18T22:19:00.304Z,99877.66
2022-11-18T22:21:30.717Z,99874.84
2022-11-18T22:24:02.144Z,99886.97
2022-11-18T22:26:29.565Z,99882.75
2022-11-18T22:28:58.200Z,99881.34
2022-11-18T22:31:27.436Z,99882.63
2022-11-18T22:33:56.437Z,99894.03
2022-11-18T22:36:25.807Z,99895.72
2022-11-18T22:38:54.333Z,99889.53
2022-11-18T22:41:42.370Z,99900.47
2022-11-18T22:44:10.887Z,99906.63
2022-11-18T22:46:39.539Z,99901.03
2022-11-18T22:49:08.139Z,99908.03
2022-11-18T22:51:36.630Z,99892.50
2022-11-18T22:54:36.530Z,99905.63
2022-11-18T22:56:53.893Z,99897.31
2022-11-18T22:59:21.888Z,99880.81
2022-11-18T23:01:51.603Z,99898.81
2022-11-18T23:04:19.110Z,99903.16
2022-11-18T23:06:46.264Z,99896.81
2022-11-18T23:09:13.850Z,99894.56
2022-11-18T23:11:59.983Z,99894.38
2022-11-18T23:14:27.583Z,99897.78
2022-11-18T23:16:54.885Z,99876.41
2022-11-18T23:19:22.502Z,99873.94
2022-11-18T23:21:49.917Z,99883.91
2022-11-18T23:24:19.137Z,99879.78
2022-11-18T23:26:46.753Z,99880.88
2022-11-18T23:29:15.185Z,99880.63
2022-11-18T23:31:43.993Z,99878.53
2022-11-18T23:34:12.979Z,99858.53
2022-11-18T23:36:41.110Z,99869.63
2022-11-18T23:39:08.774Z,99867.38
2022-11-18T23:41:35.989Z,99859.47
2022-11-18T23:44:04.178Z,99859.47
2022-11-18T23:46:32.385Z,99853.50
2022-11-18T23:49:00.088Z,99854.47
2022-11-18T23:51:27.418Z,99859.34
2022-11-18T23:53:57.079Z,99854.53
2022-11-18T23:56:26.610Z,99855.97
2022-11-18T23:58:56.294Z,99861.66
